createdAt,value
2017-08-15T00:00:22.149Z,17.00
2017-08-15T00:02:49.786Z,16.17
2017-08-15T00:05:17.441Z,16.90
2017-08-15T00:07:45.029Z,16.93
2017-08-15T00:10:12.623Z,16.33
2017-08-15T00:12:40.293Z,19.10
2017-08-15T00:15:08.639Z,18.57
2017-08-15T00:17:36.255Z,19.30
2017-08-15T00:20:03.904Z,18.00
2017-08-15T00:22:31.604Z,18.73
2017-08-15T00:24:59.243Z,17.77
2017-08-15T00:27:26.815Z,16.40
2017-08-15T00:29:54.479Z,16.50
2017-08-15T00:32:22.170Z,17.63
2017-08-15T00:34:49.771Z,18.10
2017-08-15T00:37:17.579Z,18.60
2017-08-15T00:39:45.190Z,19.20
2017-08-15T00:42:13.541Z,17.80
2017-08-15T00:44:51.134Z,17.17
2017-08-15T00:47:18.741Z,15.70
2017-08-15T00:49:46.379Z,16.87
2017-08-15T00:52:15.086Z,16.00
2017-08-15T00:54:42.671Z,15.90
2017-08-15T00:57:10.385Z,16.23
2017-08-15T00:59:37.982Z,14.90
2017-08-15T01:02:05.569Z,14.70
2017-08-15T01:04:33.185Z,13.53
2017-08-15T01:07:00.906Z,13.80
2017-08-15T01:09:28.502Z,14.80
2017-08-15T01:11:56.082Z,13.73
2017-08-15T01:14:23.780Z,12.57
2017-08-15T01:16:51.360Z,13.47
2017-08-15T01:19:19.709Z,13.07
2017-08-15T01:21:47.413Z,12.73
2017-08-15T01:24:15.061Z,13.00
2017-08-15T01:26:42.680Z,11.40
2017-08-15T01:29:10.293Z,12.50
2017-08-15T01:31:37.896Z,12.10
2017-08-15T01:34:05.473Z,12.30
2017-08-15T01:36:33.086Z,10.30
2017-08-15T01:39:00.685Z,12.07
2017-08-15T01:41:29.059Z,11.00
2017-08-15T01:43:56.673Z,11.87
2017-08-15T01:46:24.328Z,11.70
2017-08-15T01:48:51.929Z,11.30
2017-08-15T01:51:19.557Z,11.93
2017-08-15T01:53:47.246Z,12.70
2017-08-15T01:56:14.841Z,12.53
2017-08-15T01:58:42.439Z,10.90
2017-08-15T02:01:10.053Z,11.10
2017-08-15T02:03:37.668Z,10.97
2017-08-15T02:06:05.283Z,13.00
2017-08-15T02:08:32.909Z,10.97
2017-08-15T02:11:00.613Z,12.83
2017-08-15T02:13:29.138Z,11.57
2017-08-15T02:15:56.713Z,11.60
2017-08-15T02:18:24.293Z,11.83
2017-08-15T02:20:52.033Z,11.80
2017-08-15T02:23:19.607Z,12.90
2017-08-15T02:25:47.215Z,11.50
2017-08-15T02:28:14.857Z,12.50
2017-08-15T02:30:43.277Z,11.37
2017-08-15T02:33:10.858Z,12.87
2017-08-15T02:35:38.470Z,12.00
2017-08-15T02:38:06.122Z,13.33
2017-08-15T02:40:33.714Z,13.10
2017-08-15T02:43:01.326Z,12.50
2017-08-15T02:45:29.274Z,13.33
2017-08-15T02:47:56.856Z,12.83
2017-08-15T02:50:25.219Z,13.33
2017-08-15T02:52:52.784Z,12.03
2017-08-15T02:55:20.382Z,13.17
2017-08-15T02:57:56.527Z,12.63
2017-08-15T03:00:24.114Z,11.60
2017-08-15T03:02:51.723Z,13.30
2017-08-15T03:05:19.356Z,12.40
2017-08-15T03:07:46.931Z,12.00
2017-08-15T03:10:14.648Z,12.70
2017-08-15T03:12:42.415Z,12.47
2017-08-15T03:15:09.987Z,12.50
2017-08-15T03:17:37.578Z,12.53
2017-08-15T03:20:05.256Z,11.93
2017-08-15T03:22:32.840Z,11.20
2017-08-15T03:25:00.426Z,11.43
2017-08-15T03:27:28.129Z,11.57
2017-08-15T03:30:13.900Z,10.90
2017-08-15T03:32:41.631Z,11.70
2017-08-15T03:35:09.221Z,12.50
2017-08-15T03:37:36.822Z,11.20
2017-08-15T03:40:04.460Z,11.50
2017-08-15T03:42:32.109Z,10.20
2017-08-15T03:45:00.466Z,9.80
2017-08-15T03:47:28.232Z,11.87
2017-08-15T03:49:55.848Z,12.53
2017-08-15T03:52:23.450Z,12.97
2017-08-15T03:54:51.055Z,11.60
2017-08-15T03:57:18.682Z,11.00
2017-08-15T03:59:46.242Z,10.57
2017-08-15T04:02:13.837Z,10.00
2017-08-15T04:04:49.154Z,9.87
2017-08-15T04:07:22.553Z,10.93
2017-08-15T04:09:50.196Z,10.27
2017-08-15T04:12:17.865Z,11.67
2017-08-15T04:14:45.505Z,9.83
2017-08-15T04:17:13.121Z,10.00
2017-08-15T04:19:40.847Z,11.13
2017-08-15T04:22:10.122Z,10.10
2017-08-15T04:24:37.718Z,9.67
2017-08-15T04:27:06.074Z,10.60
2017-08-15T04:29:33.792Z,11.03
2017-08-15T04:32:01.369Z,9.17
2017-08-15T04:34:29.032Z,10.40
2017-08-15T04:36:56.800Z,10.10
2017-08-15T04:39:24.450Z,10.47
2017-08-15T04:41:52.045Z,10.97
2017-08-15T04:44:19.682Z,10.13
2017-08-15T04:46:47.332Z,9.83
2017-08-15T04:49:14.937Z,10.10
2017-08-15T04:51:43.734Z,10.67
2017-08-15T04:54:11.393Z,9.50
2017-08-15T04:56:38.975Z,10.20
2017-08-15T04:59:06.593Z,9.80
2017-08-15T05:01:34.935Z,10.33
2017-08-15T05:04:02.547Z,9.27
2017-08-15T05:06:30.988Z,9.80
2017-08-15T05:08:58.580Z,9.80
2017-08-15T05:11:26.911Z,9.30
2017-08-15T05:13:54.616Z,8.73
2017-08-15T05:16:23.196Z,8.80
2017-08-15T05:18:51.634Z,9.00
2017-08-15T05:21:19.237Z,9.30
2017-08-15T05:23:46.864Z,8.00
2017-08-15T05:26:14.449Z,8.83
2017-08-15T05:28:42.833Z,8.27
2017-08-15T05:31:11.193Z,9.10
2017-08-15T05:33:38.909Z,9.80
2017-08-15T05:36:10.489Z,10.57
2017-08-15T05:38:38.150Z,9.60
2017-08-15T05:41:05.732Z,10.70
2017-08-15T05:43:33.348Z,10.57
2017-08-15T05:46:00.995Z,9.87
2017-08-15T05:48:28.574Z,9.47
2017-08-15T05:50:56.191Z,10.17
2017-08-15T05:53:23.871Z,9.87
2017-08-15T05:55:51.789Z,10.17
2017-08-15T06:01:36.798Z,8.47
2017-08-15T06:04:06.622Z,8.90
2017-08-15T06:06:34.213Z,8.33
2017-08-15T06:09:01.828Z,9.90
2017-08-15T06:11:30.181Z,7.27
2017-08-15T06:14:02.081Z,7.63
2017-08-15T06:16:29.776Z,7.03
2017-08-15T06:18:57.383Z,7.20
2017-08-15T06:21:38.169Z,7.17
2017-08-15T06:24:06.099Z,7.80
2017-08-15T06:26:33.700Z,6.87
2017-08-15T06:29:01.289Z,8.03
2017-08-15T06:34:37.223Z,7.30
2017-08-15T06:37:05.767Z,8.00
2017-08-15T06:39:33.323Z,7.50
2017-08-15T06:42:14.879Z,7.67
2017-08-15T06:44:49.911Z,7.43
2017-08-15T06:49:59.809Z,7.57
2017-08-15T06:52:27.683Z,7.70
2017-08-15T06:54:55.256Z,7.27
2017-08-15T06:57:23.599Z,8.07
2017-08-15T06:59:53.989Z,7.80
2017-08-15T07:02:32.814Z,7.67
2017-08-15T07:05:00.477Z,7.10
2017-08-15T07:07:28.099Z,7.87
2017-08-15T07:09:56.449Z,7.20
2017-08-15T07:12:24.062Z,8.33
2017-08-15T07:14:51.701Z,7.87
2017-08-15T07:17:20.052Z,8.23
2017-08-15T07:19:47.644Z,9.17
2017-08-15T07:22:15.227Z,8.80
2017-08-15T07:24:42.821Z,9.70
2017-08-15T07:27:10.431Z,9.40
2017-08-15T07:29:38.008Z,9.10
2017-08-15T07:34:21.926Z,9.43
2017-08-15T07:36:49.582Z,10.50
2017-08-15T07:39:17.164Z,9.83
2017-08-15T07:41:44.842Z,10.13
2017-08-15T07:44:12.454Z,10.23
2017-08-15T07:46:40.054Z,10.03
2017-08-15T07:49:07.666Z,10.73
2017-08-15T07:51:35.513Z,12.03
2017-08-15T07:54:03.985Z,12.17
2017-08-15T07:56:32.447Z,11.30
2017-08-15T07:59:00.052Z,11.00
2017-08-15T08:01:27.786Z,11.43
2017-08-15T08:03:55.458Z,10.63
2017-08-15T08:06:23.042Z,10.60
2017-08-15T08:08:50.753Z,10.37
2017-08-15T08:11:18.544Z,9.57
2017-08-15T08:13:46.176Z,10.40
2017-08-15T08:16:13.776Z,10.10
2017-08-15T08:18:41.463Z,10.10
2017-08-15T08:21:09.042Z,9.70
2017-08-15T08:23:36.638Z,9.00
2017-08-15T08:26:05.260Z,9.90
2017-08-15T08:28:33.142Z,9.00
2017-08-15T08:31:00.788Z,9.90
2017-08-15T08:33:28.413Z,9.00
2017-08-15T08:35:56.717Z,8.83
2017-08-15T08:38:25.157Z,8.83
2017-08-15T08:40:52.863Z,9.50
2017-08-15T08:43:20.461Z,9.40
2017-08-15T08:45:48.278Z,9.30
2017-08-15T08:48:15.916Z,10.63
2017-08-15T08:50:43.549Z,9.97
2017-08-15T08:53:11.441Z,8.80
2017-08-15T08:55:39.642Z,8.70
2017-08-15T08:58:07.927Z,9.40
2017-08-15T09:00:36.091Z,8.73
2017-08-15T09:03:04.358Z,8.97
2017-08-15T09:05:32.119Z,9.53
2017-08-15T09:08:01.747Z,9.63
2017-08-15T09:10:29.504Z,8.80
2017-08-15T09:12:57.906Z,8.20
2017-08-15T09:15:25.652Z,8.33
2017-08-15T09:17:53.485Z,8.10
2017-08-15T09:20:23.112Z,8.20
2017-08-15T09:22:51.778Z,8.93
2017-08-15T09:25:20.576Z,10.33
2017-08-15T09:27:48.148Z,9.23
2017-08-15T09:30:15.774Z,9.40
2017-08-15T09:32:43.518Z,8.80
2017-08-15T09:35:11.166Z,9.40
2017-08-15T09:37:38.771Z,8.30
2017-08-15T09:40:06.467Z,9.40
2017-08-15T09:42:34.121Z,9.07
2017-08-15T09:45:01.758Z,9.00
2017-08-15T09:47:29.454Z,8.37
2017-08-15T09:49:57.918Z,8.70
2017-08-15T09:52:25.612Z,8.80
2017-08-15T09:54:53.258Z,7.20
2017-08-15T09:57:20.901Z,7.87
2017-08-15T09:59:48.508Z,8.50
2017-08-15T10:02:16.139Z,8.73
2017-08-15T10:04:44.597Z,7.97
2017-08-15T10:07:12.233Z,7.60
2017-08-15T10:09:39.862Z,7.90
2017-08-15T10:12:07.526Z,7.87
2017-08-15T10:14:35.346Z,7.20
2017-08-15T10:17:02.958Z,6.80
2017-08-15T10:19:30.553Z,8.10
2017-08-15T10:21:58.213Z,9.00
2017-08-15T10:24:25.922Z,6.80
2017-08-15T10:26:54.349Z,7.00
2017-08-15T10:29:21.959Z,6.60
2017-08-15T10:31:50.395Z,7.37
2017-08-15T10:34:17.972Z,6.90
2017-08-15T10:36:45.601Z,6.40
2017-08-15T10:39:13.454Z,6.93
2017-08-15T10:41:41.175Z,7.10
2017-08-15T10:44:08.781Z,6.30
2017-08-15T10:46:36.544Z,6.20
2017-08-15T10:49:04.341Z,6.17
2017-08-15T10:51:32.735Z,6.10
2017-08-15T10:54:00.379Z,5.70
2017-08-15T10:56:28.119Z,6.47
2017-08-15T10:58:55.807Z,5.80
2017-08-15T11:01:23.642Z,6.13
2017-08-15T11:03:51.242Z,5.67
2017-08-15T11:06:19.065Z,5.70
2017-08-15T11:08:46.710Z,5.00
2017-08-15T11:11:15.048Z,5.10
2017-08-15T11:13:42.890Z,4.20
2017-08-15T11:16:10.529Z,4.20
2017-08-15T11:18:38.252Z,3.83
2017-08-15T11:21:06.107Z,3.60
2017-08-15T11:23:33.853Z,4.00
2017-08-15T11:26:01.771Z,4.13
2017-08-15T11:28:29.347Z,4.43
2017-08-15T11:30:57.808Z,4.43
2017-08-15T11:39:47.981Z,4.20
2017-08-15T11:42:15.592Z,4.00
2017-08-15T11:44:45.468Z,4.20
2017-08-15T11:47:21.037Z,4.47
2017-08-15T11:49:49.491Z,4.00
2017-08-15T11:52:17.106Z,4.00
2017-08-15T11:54:44.711Z,3.63
2017-08-15T11:57:12.394Z,3.97
2017-08-15T11:59:39.982Z,3.60
2017-08-15T12:02:07.622Z,3.83
2017-08-15T12:04:35.222Z,4.10
2017-08-15T12:07:02.882Z,4.63
2017-08-15T12:09:30.548Z,4.93
2017-08-15T12:11:58.142Z,5.67
2017-08-15T12:14:25.727Z,4.77
2017-08-15T12:16:53.440Z,4.77
2017-08-15T12:19:21.804Z,5.13
2017-08-15T12:21:49.597Z,4.90
2017-08-15T12:24:18.190Z,4.30
2017-08-15T12:26:45.844Z,3.83
2017-08-15T12:29:13.433Z,5.40
2017-08-15T12:31:41.162Z,4.70
2017-08-15T12:34:09.686Z,4.00
2017-08-15T12:36:37.391Z,4.33
2017-08-15T12:39:05.786Z,3.93
2017-08-15T12:41:34.129Z,4.30
2017-08-15T12:44:01.775Z,4.47
2017-08-15T12:46:29.412Z,3.73
2017-08-15T12:48:57.008Z,4.60
2017-08-15T12:51:24.652Z,3.90
2017-08-15T12:53:52.359Z,3.50
2017-08-15T12:56:20.710Z,3.80
2017-08-15T12:58:48.322Z,3.50
2017-08-15T13:01:16.022Z,3.40
2017-08-15T13:03:43.638Z,4.17
2017-08-15T13:06:12.048Z,3.70
2017-08-15T13:08:39.670Z,3.83
2017-08-15T13:11:08.078Z,3.50
2017-08-15T13:13:35.700Z,3.93
2017-08-15T13:16:03.326Z,3.80
2017-08-15T13:18:31.039Z,3.67
2017-08-15T13:20:58.677Z,4.00
2017-08-15T13:23:26.300Z,3.17
2017-08-15T13:25:55.048Z,3.47
2017-08-15T13:28:23.513Z,3.23
2017-08-15T13:30:51.184Z,3.57
2017-08-15T13:33:19.549Z,4.50
2017-08-15T13:35:47.151Z,3.63
2017-08-15T13:38:14.909Z,4.10
2017-08-15T13:40:42.522Z,3.37
2017-08-15T13:43:10.100Z,3.70
2017-08-15T13:45:37.792Z,3.93
2017-08-15T13:48:05.595Z,4.17
2017-08-15T13:50:33.190Z,3.80
2017-08-15T13:53:00.828Z,3.70
2017-08-15T13:55:28.543Z,3.90
2017-08-15T13:57:56.157Z,4.20
2017-08-15T14:00:23.832Z,4.33
2017-08-15T14:02:51.460Z,4.47
2017-08-15T14:05:19.070Z,4.80
2017-08-15T14:07:47.479Z,5.30
2017-08-15T14:10:15.092Z,4.70
2017-08-15T14:12:42.703Z,4.20
2017-08-15T14:15:10.364Z,5.30
2017-08-15T14:17:37.979Z,4.70
2017-08-15T14:20:05.561Z,4.53
2017-08-15T14:22:33.949Z,5.53
2017-08-15T14:25:01.547Z,5.00
2017-08-15T14:27:29.191Z,4.93
2017-08-15T14:29:56.838Z,5.27
2017-08-15T14:32:24.450Z,5.20
2017-08-15T14:34:52.074Z,4.73
2017-08-15T14:37:19.749Z,4.83
2017-08-15T14:39:47.351Z,4.70
2017-08-15T14:42:14.962Z,5.40
2017-08-15T14:44:43.505Z,5.50
2017-08-15T14:47:12.005Z,4.90
2017-08-15T14:49:39.688Z,5.30
2017-08-15T14:52:07.463Z,5.37
2017-08-15T14:54:35.254Z,5.20
2017-08-15T14:57:02.863Z,4.60
2017-08-15T14:59:30.511Z,5.30
2017-08-15T15:01:58.236Z,5.00
2017-08-15T15:04:25.841Z,4.60
2017-08-15T15:06:53.508Z,4.60
2017-08-15T15:09:21.200Z,5.00
2017-08-15T15:11:48.930Z,5.20
2017-08-15T15:14:16.787Z,5.67
2017-08-15T15:16:45.187Z,5.63
2017-08-15T15:19:12.903Z,5.77
2017-08-15T15:21:40.627Z,5.90
2017-08-15T15:24:09.483Z,5.60
2017-08-15T15:26:37.915Z,5.73
2017-08-15T15:29:05.593Z,5.47
2017-08-15T15:31:33.398Z,6.20
2017-08-15T15:34:01.829Z,6.13
2017-08-15T15:36:29.732Z,6.07
2017-08-15T15:38:58.210Z,5.10
2017-08-15T15:41:26.641Z,5.17
2017-08-15T15:43:54.727Z,5.30
2017-08-15T15:46:23.236Z,5.30
2017-08-15T15:48:51.066Z,6.20
2017-08-15T15:51:18.801Z,6.77
2017-08-15T15:53:46.442Z,6.40
2017-08-15T15:56:14.784Z,6.00
2017-08-15T15:58:42.398Z,6.20
2017-08-15T16:01:10.054Z,5.10
2017-08-15T16:03:37.644Z,6.50
2017-08-15T16:06:05.273Z,5.67
2017-08-15T16:08:32.960Z,5.97
2017-08-15T16:11:00.588Z,5.70
2017-08-15T16:13:28.219Z,5.57
2017-08-15T16:15:55.885Z,5.20
2017-08-15T16:18:23.485Z,5.80
2017-08-15T16:20:51.101Z,5.60
2017-08-15T16:23:18.738Z,5.90
2017-08-15T16:25:46.421Z,5.87
2017-08-15T16:28:14.103Z,5.47
2017-08-15T16:30:42.572Z,5.60
2017-08-15T16:33:10.223Z,5.80
2017-08-15T16:35:37.856Z,5.47
2017-08-15T16:38:05.430Z,5.60
2017-08-15T16:40:33.335Z,6.40
2017-08-15T16:43:01.801Z,6.03
2017-08-15T16:45:30.383Z,5.87
2017-08-15T16:47:58.170Z,5.37
2017-08-15T16:50:26.546Z,5.83
2017-08-15T16:52:54.977Z,5.67
2017-08-15T16:55:22.575Z,6.00
2017-08-15T16:57:50.192Z,6.23
2017-08-15T17:00:17.822Z,5.83
2017-08-15T17:02:46.275Z,5.87
2017-08-15T17:05:14.119Z,5.63
2017-08-15T17:07:41.747Z,5.80
2017-08-15T17:10:09.440Z,5.83
2017-08-15T17:12:37.237Z,6.17
2017-08-15T17:15:04.830Z,5.87
2017-08-15T17:17:32.610Z,5.70
2017-08-15T17:20:00.430Z,5.63
2017-08-15T17:22:29.785Z,6.17
2017-08-15T17:24:57.632Z,6.00
2017-08-15T17:27:25.240Z,5.83
2017-08-15T17:29:53.010Z,6.23
2017-08-15T17:32:20.673Z,5.83
2017-08-15T17:34:48.394Z,5.93
2017-08-15T17:37:16.207Z,6.13
2017-08-15T17:39:43.991Z,6.13
2017-08-15T17:42:15.730Z,6.40
2017-08-15T17:44:45.435Z,6.47
2017-08-15T17:47:14.362Z,6.80
2017-08-15T17:49:43.868Z,6.20
2017-08-15T17:52:11.804Z,6.53
2017-08-15T17:54:40.932Z,7.10
2017-08-15T17:57:09.942Z,7.83
2017-08-15T17:59:38.173Z,6.60
2017-08-15T18:02:06.670Z,6.37
2017-08-15T18:04:34.409Z,6.70
2017-08-15T18:07:02.167Z,6.90
2017-08-15T18:09:30.003Z,6.87
2017-08-15T18:11:57.712Z,6.13
2017-08-15T18:14:26.191Z,6.87
2017-08-15T18:16:53.978Z,6.83
2017-08-15T18:19:22.518Z,6.63
2017-08-15T18:21:50.194Z,7.23
2017-08-15T18:24:17.786Z,6.23
2017-08-15T18:26:46.227Z,7.27
2017-08-15T18:29:13.852Z,6.07
2017-08-15T18:31:41.658Z,6.20
2017-08-15T18:34:09.265Z,6.23
2017-08-15T18:36:36.884Z,7.13
2017-08-15T18:39:04.497Z,6.90
2017-08-15T18:41:32.273Z,6.53
2017-08-15T18:43:59.939Z,6.57
2017-08-15T18:46:27.653Z,6.97
2017-08-15T18:48:56.229Z,6.80
2017-08-15T18:51:23.831Z,7.27
2017-08-15T18:53:51.593Z,8.07
2017-08-15T18:56:19.218Z,9.07
2017-08-15T18:58:46.813Z,8.27
2017-08-15T19:01:14.480Z,8.40
2017-08-15T19:03:42.166Z,8.33
2017-08-15T19:06:09.748Z,8.37
2017-08-15T19:08:37.510Z,8.30
2017-08-15T19:11:05.158Z,8.90
2017-08-15T19:13:32.745Z,8.70
2017-08-15T19:32:21.366Z,7.50
2017-08-15T19:35:44.321Z,6.90
2017-08-15T19:38:12.965Z,7.00
2017-08-15T19:41:15.947Z,6.27
2017-08-15T19:43:45.280Z,6.53
2017-08-15T19:46:13.822Z,7.27
2017-08-15T19:51:25.565Z,7.20
2017-08-15T19:53:53.915Z,6.67
2017-08-15T19:58:58.626Z,8.07
2017-08-15T20:01:26.341Z,6.57
2017-08-15T20:03:54.688Z,6.77
2017-08-15T20:06:23.849Z,6.73
2017-08-15T20:08:52.209Z,7.20
2017-08-15T20:11:20.593Z,6.00
2017-08-15T20:13:49.073Z,7.20
2017-08-15T20:16:17.530Z,6.83
2017-08-15T20:18:45.929Z,6.73
2017-08-15T20:21:14.365Z,7.00
2017-08-15T20:23:42.744Z,7.23
2017-08-15T20:26:11.930Z,6.60
2017-08-15T20:28:41.192Z,6.77
2017-08-15T20:31:09.548Z,6.10
2017-08-15T20:33:37.937Z,7.20
2017-08-15T20:36:06.312Z,6.93
2017-08-15T20:38:34.964Z,6.10
2017-08-15T20:41:03.457Z,6.83
2017-08-15T20:43:31.874Z,7.03
2017-08-15T20:46:00.242Z,6.07
2017-08-15T20:48:28.672Z,5.97
2017-08-15T20:50:57.975Z,6.63
2017-08-15T20:53:27.216Z,6.30
2017-08-15T20:55:55.898Z,6.37
2017-08-15T20:58:24.344Z,6.20
2017-08-15T21:00:52.730Z,6.10
2017-08-15T21:03:21.189Z,5.77
2017-08-15T21:05:50.365Z,5.47
2017-08-15T21:08:18.800Z,6.23
2017-08-15T21:10:47.258Z,5.43
2017-08-15T21:13:15.738Z,5.90
2017-08-15T21:15:44.117Z,5.83
2017-08-15T21:18:12.504Z,6.20
2017-08-15T21:20:40.872Z,6.30
2017-08-15T21:23:09.537Z,6.00
2017-08-15T21:25:37.958Z,4.90
2017-08-15T21:28:06.472Z,5.20
2017-08-15T21:30:34.802Z,5.30
2017-08-15T21:33:03.248Z,5.60
2017-08-15T21:35:32.394Z,6.00
2017-08-15T21:38:00.877Z,4.97
2017-08-15T21:40:29.207Z,5.70
2017-08-15T21:42:58.364Z,4.97
2017-08-15T21:45:27.023Z,4.87
2017-08-15T21:47:55.500Z,5.20
2017-08-15T21:50:24.020Z,5.17
2017-08-15T21:52:52.470Z,4.37
2017-08-15T21:55:20.838Z,4.53
2017-08-15T21:57:49.216Z,4.83
2017-08-15T22:00:17.577Z,4.83
2017-08-15T22:02:45.917Z,4.73
2017-08-15T22:05:14.308Z,4.27
2017-08-15T22:07:43.404Z,4.13
2017-08-15T22:10:12.547Z,4.57
2017-08-15T22:12:40.970Z,3.63
2017-08-15T22:15:10.503Z,4.60
2017-08-15T22:17:39.032Z,3.80
2017-08-15T22:20:07.416Z,4.00
2017-08-15T22:22:35.762Z,3.97
2017-08-15T22:25:04.151Z,4.70
2017-08-15T22:27:32.517Z,3.70
2017-08-15T22:30:00.847Z,3.83
2017-08-15T22:32:30.036Z,4.17
2017-08-15T22:34:58.396Z,4.40
2017-08-15T22:37:26.941Z,4.13
2017-08-15T22:39:55.305Z,3.63
2017-08-15T22:42:23.886Z,3.70
2017-08-15T22:44:52.326Z,3.87
2017-08-15T22:47:20.673Z,3.17
2017-08-15T22:49:49.034Z,4.07
2017-08-15T22:52:17.367Z,3.60
2017-08-15T22:54:45.705Z,3.57
2017-08-15T22:57:14.174Z,3.57
2017-08-15T22:59:42.517Z,3.50
2017-08-15T23:02:11.612Z,3.40
2017-08-15T23:04:40.744Z,3.73
2017-08-15T23:07:09.470Z,3.60
2017-08-15T23:09:38.781Z,3.20
2017-08-15T23:12:08.134Z,3.33
2017-08-15T23:14:36.582Z,3.40
2017-08-15T23:17:04.926Z,3.63
2017-08-15T23:19:33.305Z,2.80
2017-08-15T23:22:01.887Z,3.67
2017-08-15T23:24:30.245Z,3.67
2017-08-15T23:26:58.622Z,2.77
2017-08-15T23:29:26.968Z,3.33
2017-08-15T23:31:55.307Z,2.97
2017-08-15T23:34:24.595Z,2.97
2017-08-15T23:36:52.973Z,3.00
2017-08-15T23:39:21.446Z,2.97
2017-08-15T23:41:49.911Z,2.90
2017-08-15T23:44:18.240Z,3.20
2017-08-15T23:46:46.590Z,3.00
2017-08-15T23:49:15.150Z,3.00
2017-08-15T23:51:43.573Z,3.03
2017-08-15T23:54:11.924Z,2.50
2017-08-15T23:56:40.287Z,3.63
2017-08-15T23:59:09.644Z,3.10
